CXA8497 ZUUU-ZULS
Flight info
| Callsign | CXA8497 |
|---|---|
| Flight time | 2h 9m |
| Altitude | 34100 |
| Route | MUMG9W/02L MUMGO B213 LXA |
| Aircraft | B737/M-SDE2E3FGHIRWXY/LB1 |
Departure
| Time | 2026-04-21 07:23 |
|---|---|
| Airport | Chengdu Shuangliu International Airport (ZUUU) |
Arrival
| Time | 2026-04-21 09:32 |
|---|---|
| Airport | Lhasa Gonggar International Airport (ZULS) |
| Time | Latitude | Longitude | Altitude | Speed | Heading |
|---|---|---|---|---|---|
| 2026-04-21 06:40 | 30.58027 | 103.95375 | 1689 ft | 0 kts | 201° |
| 2026-04-21 07:10 | 30.58033 | 103.95378 | 1689 ft | 2 kts | 201° |
| 2026-04-21 07:11 | 30.58047 | 103.95384 | 1689 ft | 2 kts | 201° |
| 2026-04-21 07:11 | 30.58061 | 103.95390 | 1689 ft | 2 kts | 201° |
| 2026-04-21 07:11 | 30.58075 | 103.95397 | 1689 ft | 2 kts | 205° |
| 2026-04-21 07:11 | 30.58086 | 103.95409 | 1689 ft | 2 kts | 239° |
| 2026-04-21 07:12 | 30.58091 | 103.95425 | 1689 ft | 2 kts | 268° |
| 2026-04-21 07:12 | 30.58089 | 103.95442 | 1689 ft | 2 kts | 295° |
| 2026-04-21 07:12 | 30.58083 | 103.95458 | 1689 ft | 1 kts | 291° |
| 2026-04-21 07:12 | 30.58082 | 103.95458 | 1689 ft | 0 kts | 290° |
| 2026-04-21 07:14 | 30.58086 | 103.95447 | 1689 ft | 6 kts | 292° |
| 2026-04-21 07:14 | 30.58114 | 103.95369 | 1689 ft | 13 kts | 292° |
| 2026-04-21 07:15 | 30.58149 | 103.95266 | 1689 ft | 13 kts | 285° |
| 2026-04-21 07:15 | 30.58092 | 103.95205 | 1689 ft | 12 kts | 202° |
| 2026-04-21 07:15 | 30.58007 | 103.95165 | 1689 ft | 14 kts | 202° |
| 2026-04-21 07:15 | 30.57893 | 103.95112 | 1689 ft | 18 kts | 201° |
| 2026-04-21 07:16 | 30.57772 | 103.95056 | 1689 ft | 18 kts | 202° |
| 2026-04-21 07:16 | 30.57647 | 103.94998 | 1689 ft | 20 kts | 202° |
| 2026-04-21 07:16 | 30.57514 | 103.94936 | 1689 ft | 20 kts | 202° |
| 2026-04-21 07:16 | 30.57377 | 103.94872 | 1689 ft | 20 kts | 201° |
| 2026-04-21 07:17 | 30.57242 | 103.94810 | 1689 ft | 21 kts | 201° |
| 2026-04-21 07:17 | 30.57105 | 103.94746 | 1689 ft | 19 kts | 203° |
| 2026-04-21 07:17 | 30.56996 | 103.94696 | 1689 ft | 16 kts | 199° |
| 2026-04-21 07:17 | 30.56883 | 103.94669 | 1689 ft | 16 kts | 192° |
| 2026-04-21 07:18 | 30.56770 | 103.94621 | 1689 ft | 17 kts | 202° |
| 2026-04-21 07:18 | 30.56654 | 103.94567 | 1689 ft | 18 kts | 202° |
| 2026-04-21 07:18 | 30.56534 | 103.94511 | 1689 ft | 18 kts | 202° |
| 2026-04-21 07:18 | 30.56410 | 103.94453 | 1689 ft | 19 kts | 201° |
| 2026-04-21 07:19 | 30.56292 | 103.94399 | 1689 ft | 15 kts | 202° |
| 2026-04-21 07:19 | 30.56240 | 103.94331 | 1689 ft | 11 kts | 291° |
| 2026-04-21 07:19 | 30.56272 | 103.94246 | 1689 ft | 12 kts | 291° |
| 2026-04-21 07:19 | 30.56310 | 103.94134 | 1689 ft | 16 kts | 292° |
| 2026-04-21 07:20 | 30.56364 | 103.94029 | 1689 ft | 12 kts | 324° |
| 2026-04-21 07:20 | 30.56400 | 103.94023 | 1689 ft | 0 kts | 23° |
| 2026-04-21 07:22 | 30.56404 | 103.94025 | 1689 ft | 3 kts | 23° |
| 2026-04-21 07:22 | 30.56620 | 103.94126 | 1689 ft | 69 kts | 21° |
| 2026-04-21 07:22 | 30.57269 | 103.94430 | 1689 ft | 131 kts | 22° |
| 2026-04-21 07:23 | 30.58268 | 103.94895 | 1895 ft | 164 kts | 20° |
| 2026-04-21 07:23 | 30.59312 | 103.95380 | 2577 ft | 166 kts | 22° |
| 2026-04-21 07:23 | 30.60431 | 103.95875 | 3149 ft | 178 kts | 21° |
| 2026-04-21 07:23 | 30.61604 | 103.96405 | 3666 ft | 187 kts | 22° |
| 2026-04-21 07:24 | 30.62868 | 103.96994 | 4059 ft | 204 kts | 22° |
| 2026-04-21 07:24 | 30.64244 | 103.97638 | 4494 ft | 220 kts | 22° |
| 2026-04-21 07:24 | 30.65727 | 103.98330 | 4963 ft | 236 kts | 22° |
| 2026-04-21 07:24 | 30.67308 | 103.99065 | 5441 ft | 252 kts | 22° |
| 2026-04-21 07:25 | 30.68898 | 103.99990 | 5963 ft | 264 kts | 39° |
| 2026-04-21 07:25 | 30.70041 | 104.01669 | 6760 ft | 267 kts | 60° |
| 2026-04-21 07:25 | 30.70863 | 104.03597 | 7555 ft | 271 kts | 63° |
| 2026-04-21 07:25 | 30.71689 | 104.05589 | 8299 ft | 277 kts | 62° |
| 2026-04-21 07:26 | 30.72573 | 104.07578 | 9017 ft | 282 kts | 61° |
| 2026-04-21 07:26 | 30.73506 | 104.09583 | 9868 ft | 285 kts | 60° |
| 2026-04-21 07:26 | 30.74483 | 104.11633 | 10631 ft | 291 kts | 60° |
| 2026-04-21 07:26 | 30.75472 | 104.13705 | 11337 ft | 298 kts | 60° |
| 2026-04-21 07:27 | 30.76317 | 104.15920 | 12062 ft | 305 kts | 73° |
| 2026-04-21 07:27 | 30.76553 | 104.18366 | 12792 ft | 311 kts | 91° |
| 2026-04-21 07:27 | 30.76197 | 104.20881 | 13464 ft | 319 kts | 104° |
| 2026-04-21 07:27 | 30.75448 | 104.23325 | 14182 ft | 325 kts | 115° |
| 2026-04-21 07:28 | 30.74176 | 104.25504 | 14917 ft | 330 kts | 134° |
| 2026-04-21 07:28 | 30.72358 | 104.27106 | 15686 ft | 331 kts | 151° |
| 2026-04-21 07:28 | 30.70199 | 104.28215 | 16414 ft | 335 kts | 162° |
| 2026-04-21 07:28 | 30.67886 | 104.28773 | 17037 ft | 338 kts | 180° |
| 2026-04-21 07:29 | 30.65583 | 104.28422 | 17788 ft | 335 kts | 199° |
| 2026-04-21 07:29 | 30.63452 | 104.27323 | 18497 ft | 335 kts | 212° |
| 2026-04-21 07:29 | 30.61513 | 104.25771 | 19209 ft | 335 kts | 222° |
| 2026-04-21 07:29 | 30.59916 | 104.23801 | 19881 ft | 337 kts | 235° |
| 2026-04-21 07:30 | 30.58739 | 104.21455 | 20620 ft | 336 kts | 247° |
| 2026-04-21 07:30 | 30.57949 | 104.18855 | 21207 ft | 341 kts | 253° |
| 2026-04-21 07:30 | 30.57315 | 104.16206 | 21890 ft | 342 kts | 254° |
| 2026-04-21 07:30 | 30.56659 | 104.13486 | 22454 ft | 347 kts | 253° |
| 2026-04-21 07:31 | 30.55960 | 104.10800 | 23062 ft | 349 kts | 252° |
| 2026-04-21 07:31 | 30.55211 | 104.08101 | 23756 ft | 349 kts | 251° |
| 2026-04-21 07:31 | 30.54429 | 104.05395 | 24345 ft | 351 kts | 251° |
| 2026-04-21 07:31 | 30.53640 | 104.02725 | 25028 ft | 349 kts | 250° |
| 2026-04-21 07:32 | 30.52841 | 104.00006 | 25530 ft | 353 kts | 252° |
| 2026-04-21 07:32 | 30.52229 | 103.97269 | 26137 ft | 353 kts | 259° |
| 2026-04-21 07:32 | 30.52024 | 103.94938 | 26567 ft | 355 kts | 268° |
| 2026-04-21 07:32 | 30.52146 | 103.92396 | 27103 ft | 355 kts | 276° |
| 2026-04-21 07:33 | 30.52591 | 103.89575 | 27510 ft | 361 kts | 281° |
| 2026-04-21 07:33 | 30.53294 | 103.86787 | 27688 ft | 373 kts | 288° |
| 2026-04-21 07:33 | 30.54445 | 103.84022 | 27811 ft | 389 kts | 298° |
| 2026-04-21 07:33 | 30.56000 | 103.81339 | 27995 ft | 401 kts | 303° |
| 2026-04-21 07:34 | 30.57706 | 103.78734 | 28133 ft | 413 kts | 304° |
| 2026-04-21 07:34 | 30.59514 | 103.76043 | 28262 ft | 425 kts | 304° |
| 2026-04-21 07:34 | 30.61359 | 103.73320 | 28348 ft | 437 kts | 305° |
| 2026-04-21 07:34 | 30.63199 | 103.70450 | 28470 ft | 446 kts | 301° |
| 2026-04-21 07:35 | 30.64734 | 103.67306 | 28654 ft | 451 kts | 292° |
| 2026-04-21 07:35 | 30.65869 | 103.63930 | 29127 ft | 451 kts | 286° |
| 2026-04-21 07:35 | 30.66790 | 103.60472 | 29671 ft | 451 kts | 284° |
| 2026-04-21 07:35 | 30.67632 | 103.56954 | 30286 ft | 450 kts | 282° |
| 2026-04-21 07:36 | 30.68444 | 103.53417 | 30881 ft | 449 kts | 282° |
| 2026-04-21 07:36 | 30.69240 | 103.49905 | 31554 ft | 446 kts | 282° |
| 2026-04-21 07:36 | 30.70042 | 103.46383 | 32350 ft | 441 kts | 283° |
| 2026-04-21 07:36 | 30.70831 | 103.42966 | 33093 ft | 437 kts | 283° |
| 2026-04-21 07:37 | 30.71624 | 103.39556 | 33818 ft | 431 kts | 282° |
| 2026-04-21 07:37 | 30.72423 | 103.36166 | 34069 ft | 426 kts | 283° |
| 2026-04-21 07:37 | 30.73968 | 103.29670 | 34150 ft | 414 kts | 282° |
| 2026-04-21 07:38 | 30.75551 | 103.23090 | 34203 ft | 416 kts | 282° |
| 2026-04-21 07:38 | 30.77113 | 103.16560 | 34316 ft | 415 kts | 282° |
| 2026-04-21 07:39 | 30.78647 | 103.10098 | 34404 ft | 414 kts | 282° |
| 2026-04-21 07:39 | 30.80028 | 103.03536 | 34509 ft | 412 kts | 277° |
| 2026-04-21 07:40 | 30.80531 | 102.96890 | 34579 ft | 411 kts | 269° |
| 2026-04-21 07:40 | 30.80497 | 102.90097 | 34533 ft | 407 kts | 268° |
| 2026-04-21 07:41 | 30.80355 | 102.83469 | 34507 ft | 408 kts | 267° |
| 2026-04-21 07:41 | 30.80210 | 102.76863 | 34460 ft | 410 kts | 267° |
| 2026-04-21 07:42 | 30.80076 | 102.70247 | 34459 ft | 409 kts | 267° |
| 2026-04-21 07:42 | 30.79948 | 102.63634 | 34466 ft | 410 kts | 267° |
| 2026-04-21 07:43 | 30.79812 | 102.57031 | 34482 ft | 412 kts | 266° |
| 2026-04-21 07:43 | 30.79675 | 102.50385 | 34484 ft | 409 kts | 266° |
| 2026-04-21 07:44 | 30.79539 | 102.43763 | 34494 ft | 411 kts | 267° |
| 2026-04-21 07:44 | 30.79394 | 102.37135 | 34500 ft | 407 kts | 266° |
| 2026-04-21 07:45 | 30.79248 | 102.30552 | 34496 ft | 410 kts | 266° |
| 2026-04-21 07:45 | 30.79103 | 102.23968 | 34476 ft | 410 kts | 266° |
| 2026-04-21 07:46 | 30.78963 | 102.17944 | 34465 ft | 412 kts | 266° |
| 2026-04-21 07:46 | 30.78834 | 102.12431 | 34438 ft | 413 kts | 265° |
| 2026-04-21 07:47 | 30.78681 | 102.05935 | 34405 ft | 410 kts | 265° |
| 2026-04-21 07:47 | 30.78519 | 101.99241 | 34377 ft | 410 kts | 265° |
| 2026-04-21 07:48 | 30.78353 | 101.92591 | 34407 ft | 411 kts | 265° |
| 2026-04-21 07:48 | 30.78506 | 101.85905 | 34438 ft | 415 kts | 271° |
| 2026-04-21 07:49 | 30.79075 | 101.79264 | 34447 ft | 415 kts | 272° |
| 2026-04-21 07:49 | 30.79703 | 101.72625 | 34480 ft | 413 kts | 272° |
| 2026-04-21 07:50 | 30.80299 | 101.65985 | 34477 ft | 414 kts | 272° |
| 2026-04-21 07:50 | 30.80862 | 101.59368 | 34475 ft | 410 kts | 272° |
| 2026-04-21 07:51 | 30.81412 | 101.52713 | 34496 ft | 413 kts | 272° |
| 2026-04-21 07:51 | 30.81950 | 101.46095 | 34507 ft | 413 kts | 272° |
| 2026-04-21 07:52 | 30.82488 | 101.39408 | 34506 ft | 414 kts | 272° |
| 2026-04-21 07:52 | 30.83022 | 101.32739 | 34518 ft | 414 kts | 272° |
| 2026-04-21 07:53 | 30.83547 | 101.26137 | 34506 ft | 412 kts | 271° |
| 2026-04-21 07:53 | 30.84072 | 101.19437 | 34514 ft | 415 kts | 271° |
| 2026-04-21 07:54 | 30.84599 | 101.12759 | 34525 ft | 410 kts | 272° |
| 2026-04-21 07:54 | 30.85108 | 101.06163 | 34525 ft | 410 kts | 271° |
| 2026-04-21 07:55 | 30.85615 | 100.99523 | 34545 ft | 414 kts | 272° |
| 2026-04-21 07:55 | 30.86134 | 100.92866 | 34552 ft | 414 kts | 271° |
| 2026-04-21 07:56 | 30.86636 | 100.86258 | 34569 ft | 413 kts | 271° |
| 2026-04-21 07:56 | 30.87138 | 100.79578 | 34578 ft | 410 kts | 272° |
| 2026-04-21 07:57 | 30.87641 | 100.72961 | 34591 ft | 412 kts | 272° |
| 2026-04-21 07:57 | 30.88137 | 100.66347 | 34584 ft | 410 kts | 271° |
| 2026-04-21 07:58 | 30.88633 | 100.59694 | 34592 ft | 414 kts | 271° |
| 2026-04-21 07:58 | 30.89126 | 100.53031 | 34613 ft | 409 kts | 271° |
| 2026-04-21 07:59 | 30.89609 | 100.46419 | 34616 ft | 412 kts | 272° |
| 2026-04-21 07:59 | 30.90090 | 100.39786 | 34628 ft | 413 kts | 271° |
| 2026-04-21 08:00 | 30.90570 | 100.33142 | 34642 ft | 409 kts | 271° |
| 2026-04-21 08:00 | 30.91043 | 100.26558 | 34657 ft | 412 kts | 271° |
| 2026-04-21 08:01 | 30.91511 | 100.20000 | 34671 ft | 409 kts | 271° |
| 2026-04-21 08:02 | 30.92225 | 100.09906 | 34705 ft | 411 kts | 272° |
| 2026-04-21 08:02 | 30.92689 | 100.03221 | 34710 ft | 409 kts | 272° |
| 2026-04-21 08:03 | 30.93161 | 99.96608 | 34712 ft | 408 kts | 272° |
| 2026-04-21 08:03 | 30.93688 | 99.89982 | 34705 ft | 410 kts | 272° |
| 2026-04-21 08:04 | 30.94224 | 99.83368 | 34698 ft | 409 kts | 272° |
| 2026-04-21 08:04 | 30.94760 | 99.76733 | 34684 ft | 408 kts | 272° |
| 2026-04-21 08:05 | 30.95287 | 99.70052 | 34675 ft | 407 kts | 272° |
| 2026-04-21 08:05 | 30.95807 | 99.63397 | 34677 ft | 407 kts | 272° |
| 2026-04-21 08:06 | 30.96312 | 99.56780 | 34667 ft | 405 kts | 272° |
| 2026-04-21 08:06 | 30.96822 | 99.50064 | 34661 ft | 408 kts | 272° |
| 2026-04-21 08:07 | 30.97326 | 99.43420 | 34650 ft | 405 kts | 272° |
| 2026-04-21 08:07 | 30.97823 | 99.36802 | 34622 ft | 405 kts | 272° |
| 2026-04-21 08:08 | 30.98311 | 99.30231 | 34639 ft | 407 kts | 272° |
| 2026-04-21 08:08 | 30.98806 | 99.23591 | 34631 ft | 403 kts | 271° |
| 2026-04-21 08:09 | 30.99298 | 99.16936 | 34618 ft | 406 kts | 271° |
| 2026-04-21 08:09 | 30.99792 | 99.10217 | 34607 ft | 406 kts | 272° |
| 2026-04-21 08:10 | 31.00276 | 99.03566 | 34603 ft | 404 kts | 272° |
| 2026-04-21 08:10 | 31.00749 | 98.96987 | 34606 ft | 405 kts | 272° |
| 2026-04-21 08:11 | 31.01224 | 98.90325 | 34611 ft | 404 kts | 272° |
| 2026-04-21 08:11 | 31.01699 | 98.83749 | 34641 ft | 402 kts | 272° |
| 2026-04-21 08:12 | 31.02174 | 98.77065 | 34658 ft | 402 kts | 271° |
| 2026-04-21 08:12 | 31.02641 | 98.70489 | 34655 ft | 403 kts | 272° |
| 2026-04-21 08:13 | 31.03104 | 98.63966 | 34661 ft | 403 kts | 272° |
| 2026-04-21 08:13 | 31.03643 | 98.57369 | 34662 ft | 406 kts | 273° |
| 2026-04-21 08:14 | 31.04193 | 98.50887 | 34675 ft | 403 kts | 272° |
| 2026-04-21 08:14 | 31.04742 | 98.44363 | 34673 ft | 403 kts | 273° |
| 2026-04-21 08:15 | 31.05289 | 98.37809 | 34685 ft | 403 kts | 273° |
| 2026-04-21 08:15 | 31.05822 | 98.31293 | 34680 ft | 403 kts | 272° |
| 2026-04-21 08:16 | 31.06350 | 98.24757 | 34702 ft | 405 kts | 272° |
| 2026-04-21 08:16 | 31.06875 | 98.18250 | 34697 ft | 405 kts | 272° |
| 2026-04-21 08:17 | 31.07400 | 98.11688 | 34706 ft | 402 kts | 272° |
| 2026-04-21 08:17 | 31.07929 | 98.05065 | 34711 ft | 405 kts | 272° |
| 2026-04-21 08:18 | 31.08455 | 97.98535 | 34722 ft | 402 kts | 272° |
| 2026-04-21 08:18 | 31.08986 | 97.91945 | 34725 ft | 402 kts | 272° |
| 2026-04-21 08:19 | 31.09503 | 97.85446 | 34721 ft | 406 kts | 273° |
| 2026-04-21 08:19 | 31.10015 | 97.78945 | 34722 ft | 404 kts | 272° |
| 2026-04-21 08:20 | 31.10534 | 97.72311 | 34719 ft | 405 kts | 273° |
| 2026-04-21 08:20 | 31.11041 | 97.65817 | 34721 ft | 407 kts | 272° |
| 2026-04-21 08:21 | 31.11556 | 97.59173 | 34704 ft | 402 kts | 273° |
| 2026-04-21 08:21 | 31.12068 | 97.52554 | 34704 ft | 406 kts | 272° |
| 2026-04-21 08:22 | 31.12578 | 97.45890 | 34706 ft | 406 kts | 272° |
| 2026-04-21 08:22 | 31.13073 | 97.39246 | 34684 ft | 406 kts | 272° |
| 2026-04-21 08:23 | 31.13571 | 97.32613 | 34691 ft | 407 kts | 272° |
| 2026-04-21 08:23 | 31.14075 | 97.25932 | 34700 ft | 408 kts | 272° |
| 2026-04-21 08:24 | 31.14370 | 97.19312 | 34696 ft | 403 kts | 266° |
| 2026-04-21 08:24 | 31.13664 | 97.12770 | 34709 ft | 402 kts | 257° |
| 2026-04-21 08:25 | 31.12356 | 97.06387 | 34692 ft | 405 kts | 255° |
| 2026-04-21 08:25 | 31.10944 | 96.99978 | 34669 ft | 402 kts | 255° |
| 2026-04-21 08:26 | 31.09546 | 96.93618 | 34681 ft | 405 kts | 255° |
| 2026-04-21 08:26 | 31.08162 | 96.87265 | 34687 ft | 403 kts | 255° |
| 2026-04-21 08:27 | 31.06779 | 96.80886 | 34672 ft | 404 kts | 255° |
| 2026-04-21 08:27 | 31.05407 | 96.74548 | 34702 ft | 406 kts | 255° |
| 2026-04-21 08:28 | 31.04023 | 96.68177 | 34701 ft | 404 kts | 255° |
| 2026-04-21 08:28 | 31.02635 | 96.61816 | 34701 ft | 403 kts | 255° |
| 2026-04-21 08:29 | 31.01245 | 96.55450 | 34711 ft | 405 kts | 255° |
| 2026-04-21 08:29 | 30.99857 | 96.49096 | 34709 ft | 403 kts | 255° |
| 2026-04-21 08:30 | 30.98477 | 96.42797 | 34730 ft | 402 kts | 255° |
| 2026-04-21 08:30 | 30.97112 | 96.36445 | 34729 ft | 402 kts | 256° |
| 2026-04-21 08:31 | 30.95783 | 96.30140 | 34720 ft | 403 kts | 255° |
| 2026-04-21 08:31 | 30.94444 | 96.23793 | 34719 ft | 402 kts | 255° |
| 2026-04-21 08:32 | 30.93102 | 96.17460 | 34723 ft | 403 kts | 255° |
| 2026-04-21 08:32 | 30.91750 | 96.11111 | 34719 ft | 402 kts | 255° |
| 2026-04-21 08:33 | 30.90395 | 96.04775 | 34720 ft | 403 kts | 254° |
| 2026-04-21 08:33 | 30.89037 | 95.98447 | 34718 ft | 402 kts | 254° |
| 2026-04-21 08:34 | 30.87678 | 95.92114 | 34719 ft | 405 kts | 254° |
| 2026-04-21 08:34 | 30.86316 | 95.85761 | 34708 ft | 402 kts | 255° |
| 2026-04-21 08:35 | 30.84945 | 95.79401 | 34705 ft | 405 kts | 255° |
| 2026-04-21 08:35 | 30.83583 | 95.73113 | 34707 ft | 402 kts | 255° |
| 2026-04-21 08:36 | 30.82250 | 95.66756 | 34700 ft | 403 kts | 255° |
| 2026-04-21 08:36 | 30.80957 | 95.60417 | 34698 ft | 404 kts | 255° |
| 2026-04-21 08:37 | 30.79648 | 95.54033 | 34696 ft | 404 kts | 255° |
| 2026-04-21 08:37 | 30.78331 | 95.47667 | 34703 ft | 405 kts | 256° |
| 2026-04-21 08:38 | 30.77011 | 95.41312 | 34704 ft | 404 kts | 255° |
| 2026-04-21 08:38 | 30.75678 | 95.34898 | 34705 ft | 404 kts | 255° |
| 2026-04-21 08:39 | 30.74359 | 95.28609 | 34712 ft | 403 kts | 255° |
| 2026-04-21 08:39 | 30.73018 | 95.22236 | 34708 ft | 406 kts | 255° |
| 2026-04-21 08:40 | 30.71680 | 95.15871 | 34724 ft | 404 kts | 255° |
| 2026-04-21 08:40 | 30.70317 | 95.09391 | 34704 ft | 404 kts | 255° |
| 2026-04-21 08:41 | 30.68957 | 95.02959 | 34721 ft | 403 kts | 255° |
| 2026-04-21 08:41 | 30.67599 | 94.96563 | 34719 ft | 406 kts | 255° |
| 2026-04-21 08:42 | 30.66234 | 94.90144 | 34728 ft | 404 kts | 256° |
| 2026-04-21 08:42 | 30.64883 | 94.83800 | 34740 ft | 404 kts | 255° |
| 2026-04-21 08:43 | 30.63531 | 94.77456 | 34740 ft | 403 kts | 255° |
| 2026-04-21 08:43 | 30.62174 | 94.71094 | 34739 ft | 405 kts | 255° |
| 2026-04-21 08:44 | 30.60792 | 94.64658 | 34747 ft | 405 kts | 256° |
| 2026-04-21 08:44 | 30.59424 | 94.58295 | 34761 ft | 404 kts | 255° |
| 2026-04-21 08:45 | 30.58041 | 94.51872 | 34741 ft | 403 kts | 255° |
| 2026-04-21 08:45 | 30.56665 | 94.45513 | 34758 ft | 405 kts | 255° |
| 2026-04-21 08:46 | 30.55294 | 94.39196 | 34764 ft | 402 kts | 255° |
| 2026-04-21 08:46 | 30.53927 | 94.32894 | 34764 ft | 402 kts | 255° |
| 2026-04-21 08:47 | 30.52564 | 94.26634 | 34770 ft | 401 kts | 255° |
| 2026-04-21 08:47 | 30.51193 | 94.20359 | 34773 ft | 402 kts | 255° |
| 2026-04-21 08:48 | 30.49864 | 94.14098 | 34778 ft | 399 kts | 256° |
| 2026-04-21 08:48 | 30.48572 | 94.07842 | 34822 ft | 401 kts | 255° |
| 2026-04-21 08:49 | 30.47281 | 94.01590 | 34842 ft | 398 kts | 256° |
| 2026-04-21 08:49 | 30.45982 | 93.95342 | 34850 ft | 399 kts | 255° |
| 2026-04-21 08:50 | 30.44682 | 93.89105 | 34834 ft | 400 kts | 256° |
| 2026-04-21 08:50 | 30.43376 | 93.82864 | 34831 ft | 400 kts | 256° |
| 2026-04-21 08:51 | 30.42059 | 93.76601 | 34832 ft | 402 kts | 255° |
| 2026-04-21 08:51 | 30.40737 | 93.70334 | 34797 ft | 398 kts | 256° |
| 2026-04-21 08:52 | 30.39414 | 93.64088 | 34793 ft | 400 kts | 255° |
| 2026-04-21 08:52 | 30.38006 | 93.57871 | 34786 ft | 399 kts | 253° |
| 2026-04-21 08:53 | 30.36173 | 93.51791 | 34757 ft | 400 kts | 250° |
| 2026-04-21 08:53 | 30.34227 | 93.45710 | 34750 ft | 399 kts | 250° |
| 2026-04-21 08:54 | 30.32317 | 93.39677 | 34769 ft | 399 kts | 251° |
| 2026-04-21 08:54 | 30.30422 | 93.33635 | 34801 ft | 402 kts | 250° |
| 2026-04-21 08:55 | 30.28509 | 93.27522 | 34816 ft | 400 kts | 250° |
| 2026-04-21 08:55 | 30.26610 | 93.21433 | 34830 ft | 402 kts | 250° |
| 2026-04-21 08:56 | 30.24684 | 93.15253 | 34820 ft | 402 kts | 250° |
| 2026-04-21 08:56 | 30.22742 | 93.09042 | 34819 ft | 403 kts | 250° |
| 2026-04-21 08:57 | 30.20821 | 93.02913 | 34816 ft | 404 kts | 250° |
| 2026-04-21 08:57 | 30.18901 | 92.96788 | 34815 ft | 402 kts | 251° |
| 2026-04-21 08:58 | 30.17003 | 92.90738 | 34817 ft | 402 kts | 250° |
| 2026-04-21 08:58 | 30.15073 | 92.84604 | 34825 ft | 402 kts | 250° |
| 2026-04-21 08:59 | 30.13155 | 92.78538 | 34810 ft | 400 kts | 251° |
| 2026-04-21 08:59 | 30.11221 | 92.72425 | 34808 ft | 401 kts | 251° |
| 2026-04-21 09:00 | 30.09318 | 92.66402 | 34810 ft | 399 kts | 251° |
| 2026-04-21 09:00 | 30.07367 | 92.60239 | 34809 ft | 403 kts | 250° |
| 2026-04-21 09:01 | 30.05440 | 92.54132 | 34809 ft | 401 kts | 251° |
| 2026-04-21 09:01 | 30.03533 | 92.47996 | 34816 ft | 400 kts | 251° |
| 2026-04-21 09:02 | 30.01667 | 92.41990 | 34804 ft | 400 kts | 251° |
| 2026-04-21 09:02 | 29.99777 | 92.35922 | 34809 ft | 399 kts | 252° |
| 2026-04-21 09:03 | 29.97024 | 92.27110 | 34835 ft | 399 kts | 251° |
| 2026-04-21 09:03 | 29.95134 | 92.21075 | 34836 ft | 398 kts | 251° |
| 2026-04-21 09:04 | 29.93236 | 92.15031 | 34848 ft | 398 kts | 252° |
| 2026-04-21 09:04 | 29.91349 | 92.09033 | 34847 ft | 397 kts | 251° |
| 2026-04-21 09:05 | 29.89462 | 92.03041 | 34849 ft | 395 kts | 251° |
| 2026-04-21 09:05 | 29.87586 | 91.97101 | 34824 ft | 396 kts | 251° |
| 2026-04-21 09:06 | 29.85680 | 91.91075 | 34852 ft | 398 kts | 252° |
| 2026-04-21 09:06 | 29.83782 | 91.85088 | 34847 ft | 396 kts | 251° |
| 2026-04-21 09:07 | 29.82830 | 91.82093 | 34711 ft | 386 kts | 252° |
| 2026-04-21 09:07 | 29.81908 | 91.79170 | 34304 ft | 381 kts | 251° |
| 2026-04-21 09:07 | 29.81011 | 91.76299 | 33724 ft | 383 kts | 252° |
| 2026-04-21 09:07 | 29.80093 | 91.73344 | 32978 ft | 387 kts | 252° |
| 2026-04-21 09:08 | 29.79226 | 91.70560 | 32257 ft | 390 kts | 252° |
| 2026-04-21 09:08 | 29.78292 | 91.67563 | 31487 ft | 393 kts | 252° |
| 2026-04-21 09:08 | 29.77372 | 91.64613 | 30700 ft | 397 kts | 251° |
| 2026-04-21 09:08 | 29.76435 | 91.61617 | 29870 ft | 401 kts | 251° |
| 2026-04-21 09:09 | 29.75483 | 91.58574 | 29007 ft | 405 kts | 251° |
| 2026-04-21 09:09 | 29.74527 | 91.55527 | 28176 ft | 409 kts | 251° |
| 2026-04-21 09:09 | 29.73532 | 91.52363 | 27577 ft | 430 kts | 251° |
| 2026-04-21 09:09 | 29.72505 | 91.49093 | 26907 ft | 436 kts | 251° |
| 2026-04-21 09:10 | 29.71486 | 91.45842 | 26300 ft | 430 kts | 251° |
| 2026-04-21 09:10 | 29.70478 | 91.42622 | 25914 ft | 419 kts | 251° |
| 2026-04-21 09:10 | 29.69499 | 91.39488 | 25669 ft | 406 kts | 251° |
| 2026-04-21 09:10 | 29.68555 | 91.36463 | 25518 ft | 391 kts | 251° |
| 2026-04-21 09:11 | 29.67654 | 91.33575 | 25329 ft | 379 kts | 251° |
| 2026-04-21 09:11 | 29.66878 | 91.30977 | 24924 ft | 374 kts | 253° |
| 2026-04-21 09:11 | 29.66208 | 91.28091 | 24379 ft | 372 kts | 258° |
| 2026-04-21 09:11 | 29.65754 | 91.25182 | 23887 ft | 369 kts | 262° |
| 2026-04-21 09:12 | 29.65470 | 91.22272 | 23421 ft | 366 kts | 265° |
| 2026-04-21 09:12 | 29.65358 | 91.19322 | 22942 ft | 364 kts | 270° |
| 2026-04-21 09:12 | 29.65442 | 91.16455 | 22466 ft | 362 kts | 272° |
| 2026-04-21 09:12 | 29.65503 | 91.13557 | 21989 ft | 360 kts | 270° |
| 2026-04-21 09:13 | 29.65283 | 91.10710 | 21520 ft | 358 kts | 258° |
| 2026-04-21 09:13 | 29.64472 | 91.08040 | 21069 ft | 357 kts | 245° |
| 2026-04-21 09:13 | 29.63187 | 91.05593 | 20604 ft | 356 kts | 236° |
| 2026-04-21 09:13 | 29.61632 | 91.03358 | 20133 ft | 355 kts | 230° |
| 2026-04-21 09:14 | 29.59886 | 91.01373 | 19661 ft | 355 kts | 220° |
| 2026-04-21 09:14 | 29.57794 | 90.99840 | 19194 ft | 355 kts | 208° |
| 2026-04-21 09:14 | 29.55537 | 90.98695 | 18752 ft | 354 kts | 205° |
| 2026-04-21 09:14 | 29.53276 | 90.97603 | 18394 ft | 349 kts | 205° |
| 2026-04-21 09:15 | 29.51070 | 90.96519 | 18275 ft | 336 kts | 205° |
| 2026-04-21 09:15 | 29.48970 | 90.95471 | 18192 ft | 324 kts | 206° |
| 2026-04-21 09:15 | 29.46928 | 90.94443 | 18093 ft | 312 kts | 206° |
| 2026-04-21 09:15 | 29.44977 | 90.93456 | 17982 ft | 303 kts | 205° |
| 2026-04-21 09:16 | 29.43077 | 90.92496 | 17875 ft | 293 kts | 205° |
| 2026-04-21 09:16 | 29.41241 | 90.91561 | 17753 ft | 284 kts | 207° |
| 2026-04-21 09:16 | 29.39525 | 90.90415 | 17381 ft | 284 kts | 220° |
| 2026-04-21 09:16 | 29.38256 | 90.88689 | 16852 ft | 284 kts | 245° |
| 2026-04-21 09:17 | 29.37634 | 90.86578 | 16689 ft | 270 kts | 259° |
| 2026-04-21 09:17 | 29.37371 | 90.84515 | 16670 ft | 253 kts | 265° |
| 2026-04-21 09:17 | 29.37258 | 90.82568 | 16673 ft | 235 kts | 266° |
| 2026-04-21 09:17 | 29.37101 | 90.80776 | 16667 ft | 215 kts | 262° |
| 2026-04-21 09:18 | 29.36815 | 90.79162 | 16675 ft | 200 kts | 257° |
| 2026-04-21 09:18 | 29.36413 | 90.77615 | 16461 ft | 207 kts | 250° |
| 2026-04-21 09:18 | 29.35666 | 90.76176 | 15940 ft | 215 kts | 227° |
| 2026-04-21 09:18 | 29.34380 | 90.75339 | 15427 ft | 217 kts | 197° |
| 2026-04-21 09:19 | 29.32862 | 90.75212 | 14910 ft | 219 kts | 177° |
| 2026-04-21 09:19 | 29.31426 | 90.75726 | 14566 ft | 211 kts | 148° |
| 2026-04-21 09:19 | 29.30487 | 90.76969 | 14308 ft | 201 kts | 115° |
| 2026-04-21 09:19 | 29.30215 | 90.78505 | 13981 ft | 195 kts | 95° |
| 2026-04-21 09:20 | 29.30157 | 90.80002 | 13706 ft | 183 kts | 93° |
| 2026-04-21 09:20 | 29.30120 | 90.81430 | 13491 ft | 174 kts | 92° |
| 2026-04-21 09:20 | 29.30097 | 90.82790 | 13326 ft | 170 kts | 92° |
| 2026-04-21 09:20 | 29.30066 | 90.84167 | 13167 ft | 178 kts | 93° |
| 2026-04-21 09:21 | 29.30047 | 90.85609 | 12953 ft | 178 kts | 90° |
| 2026-04-21 09:21 | 29.30091 | 90.87017 | 12649 ft | 180 kts | 88° |
| 2026-04-21 09:21 | 29.30103 | 90.88459 | 12407 ft | 179 kts | 90° |
| 2026-04-21 09:21 | 29.30111 | 90.89877 | 12763 ft | 180 kts | 91° |
| 2026-04-21 09:22 | 29.30096 | 90.91396 | 12962 ft | 205 kts | 90° |
| 2026-04-21 09:22 | 29.30127 | 90.93083 | 13334 ft | 218 kts | 89° |
| 2026-04-21 09:22 | 29.30166 | 90.94770 | 14058 ft | 212 kts | 89° |
| 2026-04-21 09:22 | 29.30199 | 90.96434 | 14769 ft | 213 kts | 89° |
| 2026-04-21 09:23 | 29.30233 | 90.98141 | 15481 ft | 216 kts | 89° |
| 2026-04-21 09:23 | 29.30394 | 90.99839 | 16075 ft | 220 kts | 71° |
| 2026-04-21 09:23 | 29.31204 | 91.01279 | 16309 ft | 217 kts | 38° |
| 2026-04-21 09:23 | 29.32565 | 91.01982 | 16333 ft | 211 kts | 6° |
| 2026-04-21 09:24 | 29.34011 | 91.01936 | 16325 ft | 205 kts | 341° |
| 2026-04-21 09:24 | 29.35179 | 91.01049 | 16326 ft | 203 kts | 306° |
| 2026-04-21 09:24 | 29.35662 | 90.99558 | 16330 ft | 201 kts | 274° |
| 2026-04-21 09:24 | 29.35675 | 90.97958 | 16330 ft | 199 kts | 269° |
| 2026-04-21 09:25 | 29.35657 | 90.96384 | 16113 ft | 197 kts | 270° |
| 2026-04-21 09:25 | 29.35871 | 90.94843 | 15747 ft | 201 kts | 293° |
| 2026-04-21 09:25 | 29.36556 | 90.93430 | 15472 ft | 200 kts | 300° |
| 2026-04-21 09:25 | 29.37283 | 90.92068 | 15206 ft | 200 kts | 300° |
| 2026-04-21 09:26 | 29.37796 | 90.90611 | 14907 ft | 199 kts | 277° |
| 2026-04-21 09:26 | 29.37824 | 90.89023 | 14665 ft | 196 kts | 266° |
| 2026-04-21 09:26 | 29.37709 | 90.87487 | 14399 ft | 196 kts | 262° |
| 2026-04-21 09:26 | 29.37489 | 90.85942 | 14121 ft | 196 kts | 260° |
| 2026-04-21 09:27 | 29.37250 | 90.84416 | 13895 ft | 194 kts | 259° |
| 2026-04-21 09:27 | 29.37016 | 90.82893 | 13881 ft | 195 kts | 260° |
| 2026-04-21 09:27 | 29.36776 | 90.81351 | 13868 ft | 195 kts | 260° |
| 2026-04-21 09:27 | 29.36502 | 90.79820 | 13866 ft | 197 kts | 254° |
| 2026-04-21 09:28 | 29.36023 | 90.78352 | 13861 ft | 196 kts | 248° |
| 2026-04-21 09:28 | 29.35495 | 90.76913 | 13871 ft | 194 kts | 248° |
| 2026-04-21 09:28 | 29.34802 | 90.75576 | 13869 ft | 196 kts | 225° |
| 2026-04-21 09:28 | 29.33591 | 90.74891 | 13876 ft | 199 kts | 190° |
| 2026-04-21 09:29 | 29.32213 | 90.75082 | 13869 ft | 204 kts | 157° |
| 2026-04-21 09:29 | 29.31115 | 90.76086 | 13883 ft | 204 kts | 130° |
| 2026-04-21 09:29 | 29.30496 | 90.77486 | 13857 ft | 190 kts | 100° |
| 2026-04-21 09:29 | 29.30494 | 90.78958 | 13897 ft | 185 kts | 88° |
| 2026-04-21 09:30 | 29.30489 | 90.80414 | 13790 ft | 182 kts | 98° |
| 2026-04-21 09:30 | 29.30288 | 90.81839 | 13505 ft | 181 kts | 101° |
| 2026-04-21 09:30 | 29.30107 | 90.83268 | 13247 ft | 179 kts | 97° |
| 2026-04-21 09:30 | 29.30043 | 90.84679 | 12955 ft | 179 kts | 91° |
| 2026-04-21 09:31 | 29.30069 | 90.86102 | 12636 ft | 178 kts | 89° |
| 2026-04-21 09:31 | 29.30085 | 90.87517 | 12294 ft | 175 kts | 89° |
| 2026-04-21 09:31 | 29.30117 | 90.88898 | 11977 ft | 171 kts | 89° |
| 2026-04-21 09:31 | 29.30133 | 90.90211 | 11934 ft | 140 kts | 88° |
| 2026-04-21 09:32 | 29.30148 | 90.91054 | 11930 ft | 65 kts | 91° |
| 2026-04-21 09:32 | 29.30129 | 90.91532 | 11927 ft | 57 kts | 109° |
| 2026-04-21 09:32 | 29.30003 | 90.91858 | 11921 ft | 32 kts | 95° |
| 2026-04-21 09:32 | 29.30007 | 90.92142 | 11926 ft | 38 kts | 89° |
| 2026-04-21 09:33 | 29.30011 | 90.92476 | 11923 ft | 36 kts | 89° |
| 2026-04-21 09:33 | 29.30015 | 90.92714 | 11922 ft | 33 kts | 90° |
| 2026-04-21 09:33 | 29.30017 | 90.93008 | 11919 ft | 40 kts | 90° |
| 2026-04-21 09:33 | 29.30002 | 90.93246 | 11918 ft | 20 kts | 136° |
| 2026-04-21 09:34 | 29.29830 | 90.93265 | 11916 ft | 29 kts | 179° |
| 2026-04-21 09:34 | 29.29679 | 90.93226 | 11914 ft | 22 kts | 257° |
| 2026-04-21 09:34 | 29.29670 | 90.93022 | 11917 ft | 27 kts | 269° |
| 2026-04-21 09:34 | 29.29668 | 90.92799 | 11918 ft | 29 kts | 268° |
| 2026-04-21 09:35 | 29.29667 | 90.92554 | 11919 ft | 31 kts | 269° |
| 2026-04-21 09:35 | 29.29660 | 90.92302 | 11919 ft | 26 kts | 269° |
| 2026-04-21 09:35 | 29.29656 | 90.92118 | 11917 ft | 20 kts | 269° |
| 2026-04-21 09:35 | 29.29654 | 90.91912 | 11918 ft | 30 kts | 269° |
| 2026-04-21 09:36 | 29.29650 | 90.91633 | 11919 ft | 39 kts | 269° |
| 2026-04-21 09:36 | 29.29646 | 90.91325 | 11921 ft | 37 kts | 269° |
| 2026-04-21 09:36 | 29.29643 | 90.91061 | 11924 ft | 29 kts | 269° |
| 2026-04-21 09:36 | 29.29640 | 90.90829 | 11926 ft | 29 kts | 269° |
| 2026-04-21 09:37 | 29.29636 | 90.90592 | 11928 ft | 30 kts | 269° |
| 2026-04-21 09:37 | 29.29633 | 90.90353 | 11929 ft | 29 kts | 269° |
| 2026-04-21 09:37 | 29.29630 | 90.90119 | 11929 ft | 29 kts | 269° |
| 2026-04-21 09:37 | 29.29562 | 90.90001 | 11929 ft | 15 kts | 183° |
| 2026-04-21 09:38 | 29.29521 | 90.89902 | 11930 ft | 16 kts | 270° |
| 2026-04-21 09:38 | 29.29516 | 90.89772 | 11930 ft | 14 kts | 257° |
| 2026-04-21 09:38 | 29.29458 | 90.89723 | 11932 ft | 10 kts | 175° |
| 2026-04-21 09:38 | 29.29386 | 90.89726 | 11933 ft | 8 kts | 179° |
| 2026-04-21 09:39 | 29.29372 | 90.89726 | 11933 ft | 0 kts | 179° |